createdAt,value
2018-03-21T00:01:22.291Z,15.40
2018-03-21T00:03:48.521Z,17.80
2018-03-21T00:06:14.734Z,15.02
2018-03-21T00:08:40.993Z,16.40
2018-03-21T00:11:07.210Z,15.77
2018-03-21T00:13:33.434Z,15.93
2018-03-21T00:15:59.683Z,15.90
2018-03-21T00:18:25.888Z,17.20
2018-03-21T00:20:52.111Z,14.90
2018-03-21T00:23:18.334Z,17.80
2018-03-21T00:25:44.884Z,19.77
2018-03-21T00:28:11.085Z,17.70
2018-03-21T00:30:37.292Z,16.70
2018-03-21T00:33:03.520Z,15.45
2018-03-21T00:35:29.712Z,16.50
2018-03-21T00:37:55.941Z,17.60
2018-03-21T00:40:22.177Z,17.10
2018-03-21T00:42:48.436Z,15.43
2018-03-21T00:45:14.624Z,14.80
2018-03-21T00:47:40.888Z,14.90
2018-03-21T00:50:07.089Z,17.33
2018-03-21T00:52:33.334Z,16.60
2018-03-21T00:54:59.579Z,18.17
2018-03-21T00:57:25.817Z,18.50
2018-03-21T00:59:52.087Z,15.05
2018-03-21T01:02:18.591Z,13.20
2018-03-21T01:04:44.788Z,13.25
2018-03-21T01:07:11.036Z,13.32
2018-03-21T01:09:37.257Z,13.85
2018-03-21T01:12:03.508Z,13.48
2018-03-21T01:14:29.733Z,13.57
2018-03-21T01:16:55.968Z,13.52
2018-03-21T01:19:22.174Z,14.20
2018-03-21T01:21:48.386Z,11.40
2018-03-21T01:24:14.648Z,12.65
2018-03-21T01:26:40.891Z,12.85
2018-03-21T01:29:07.982Z,11.88
2018-03-21T01:31:34.242Z,13.55
2018-03-21T01:34:00.487Z,12.23
2018-03-21T01:36:26.756Z,14.10
2018-03-21T01:38:53.079Z,14.60
2018-03-21T01:41:19.333Z,11.60
2018-03-21T01:43:45.605Z,12.82
2018-03-21T01:46:11.858Z,11.52
2018-03-21T01:48:38.375Z,12.30
2018-03-21T01:51:04.602Z,11.35
2018-03-21T01:53:30.797Z,11.98
2018-03-21T01:55:57.034Z,10.95
2018-03-21T01:58:23.254Z,13.32
2018-03-21T02:00:49.469Z,10.25
2018-03-21T02:03:15.687Z,12.15
2018-03-21T02:05:41.916Z,10.85
2018-03-21T02:08:08.112Z,11.55
2018-03-21T02:10:34.330Z,19.25
2018-03-21T02:13:00.565Z,11.40
2018-03-21T02:15:26.827Z,12.13
2018-03-21T02:17:53.047Z,11.93
2018-03-21T02:20:20.093Z,11.00
2018-03-21T02:22:46.307Z,11.27
2018-03-21T02:25:12.941Z,10.98
2018-03-21T02:27:39.870Z,12.50
2018-03-21T02:30:06.460Z,10.50
2018-03-21T02:32:32.665Z,11.38
2018-03-21T02:34:58.915Z,12.93
2018-03-21T02:37:25.118Z,10.05
2018-03-21T02:39:51.326Z,9.15
2018-03-21T02:42:17.554Z,9.18
2018-03-21T02:44:43.801Z,10.85
2018-03-21T02:47:10.006Z,9.82
2018-03-21T02:49:36.244Z,11.10
2018-03-21T02:52:02.502Z,11.12
2018-03-21T02:54:28.839Z,10.68
2018-03-21T02:56:55.070Z,9.60
2018-03-21T02:59:21.306Z,11.15
2018-03-21T03:01:47.544Z,8.98
2018-03-21T03:04:13.759Z,11.07
2018-03-21T03:06:39.973Z,10.57
2018-03-21T03:09:08.018Z,9.60
2018-03-21T03:11:34.212Z,8.93
2018-03-21T03:14:00.439Z,9.50
2018-03-21T03:16:26.648Z,10.80
2018-03-21T03:18:52.849Z,9.27
2018-03-21T03:21:19.110Z,10.95
2018-03-21T03:23:45.348Z,8.98
2018-03-21T03:26:11.577Z,11.05
2018-03-21T03:28:37.810Z,9.27
2018-03-21T03:31:04.040Z,9.65
2018-03-21T03:33:30.253Z,9.77
2018-03-21T03:35:56.470Z,8.15
2018-03-21T03:38:22.746Z,10.00
2018-03-21T03:40:49.341Z,9.55
2018-03-21T03:43:15.590Z,9.43
2018-03-21T03:45:41.815Z,10.48
2018-03-21T03:48:08.012Z,11.02
2018-03-21T03:50:34.258Z,9.05
2018-03-21T03:53:00.491Z,9.57
2018-03-21T03:55:26.715Z,9.43
2018-03-21T03:57:53.209Z,9.85
2018-03-21T04:00:19.413Z,10.70
2018-03-21T04:02:46.007Z,9.10
2018-03-21T04:05:12.271Z,9.48
2018-03-21T04:07:38.862Z,8.90
2018-03-21T04:10:06.114Z,10.68
2018-03-21T04:12:32.333Z,10.70
2018-03-21T04:14:58.546Z,9.57
2018-03-21T04:17:24.767Z,10.70
2018-03-21T04:19:51.050Z,8.55
2018-03-21T04:22:17.273Z,10.27
2018-03-21T04:24:43.495Z,8.90
2018-03-21T04:27:09.730Z,9.45
2018-03-21T04:29:35.960Z,8.80
2018-03-21T04:32:02.189Z,9.07
2018-03-21T04:34:28.416Z,9.90
2018-03-21T04:36:54.700Z,11.38
2018-03-21T04:39:20.968Z,9.02
2018-03-21T04:41:47.225Z,9.15
2018-03-21T04:44:13.805Z,10.50
2018-03-21T04:46:40.611Z,7.95
2018-03-21T04:49:07.242Z,10.50
2018-03-21T04:51:36.180Z,9.32
2018-03-21T04:54:02.471Z,9.57
2018-03-21T04:56:28.733Z,9.68
2018-03-21T04:58:55.001Z,8.90
2018-03-21T05:01:21.212Z,12.75
2018-03-21T05:03:47.721Z,11.30
2018-03-21T05:06:13.958Z,10.38
2018-03-21T05:08:40.197Z,9.65
2018-03-21T05:11:06.478Z,8.85
2018-03-21T05:13:32.698Z,9.18
2018-03-21T05:15:59.722Z,9.98
2018-03-21T05:18:26.262Z,10.05
2018-03-21T05:20:52.519Z,8.95
2018-03-21T05:23:18.709Z,11.45
2018-03-21T05:25:44.967Z,11.10
2018-03-21T05:28:11.560Z,11.75
2018-03-21T05:30:37.849Z,11.05
2018-03-21T05:33:04.095Z,10.52
2018-03-21T05:35:30.316Z,9.90
2018-03-21T05:37:56.527Z,9.52
2018-03-21T05:40:22.792Z,11.77
2018-03-21T05:42:49.293Z,9.43
2018-03-21T05:45:15.522Z,10.50
2018-03-21T05:47:41.806Z,9.80
2018-03-21T05:50:08.065Z,9.77
2018-03-21T05:52:35.657Z,11.90
2018-03-21T05:55:01.916Z,10.45
2018-03-21T05:57:28.143Z,10.48
2018-03-21T05:59:54.403Z,12.27
2018-03-21T06:02:20.998Z,9.43
2018-03-21T06:04:47.221Z,10.50
2018-03-21T06:07:13.448Z,10.73
2018-03-21T06:09:39.694Z,13.15
2018-03-21T06:12:05.940Z,11.27
2018-03-21T06:14:32.196Z,14.70
2018-03-21T06:16:58.572Z,9.00
2018-03-21T06:19:24.793Z,10.63
2018-03-21T06:21:51.029Z,9.38
2018-03-21T06:24:17.263Z,8.68
2018-03-21T06:26:43.471Z,10.98
2018-03-21T06:29:10.168Z,10.25
2018-03-21T06:31:36.766Z,12.10
2018-03-21T06:34:03.053Z,7.75
2018-03-21T06:36:29.339Z,8.45
2018-03-21T06:38:55.553Z,8.68
2018-03-21T06:41:21.834Z,6.40
2018-03-21T06:43:48.088Z,7.20
2018-03-21T06:46:14.329Z,9.40
2018-03-21T06:48:40.555Z,8.13
2018-03-21T06:51:07.227Z,8.73
2018-03-21T06:53:40.601Z,7.90
2018-03-21T06:56:06.864Z,7.18
2018-03-21T06:58:33.470Z,8.25
2018-03-21T07:00:59.712Z,7.15
2018-03-21T07:03:25.950Z,7.10
2018-03-21T07:05:52.556Z,6.55
2018-03-21T07:08:18.771Z,8.48
2018-03-21T07:10:45.008Z,6.37
2018-03-21T07:13:11.248Z,7.05
2018-03-21T07:15:49.833Z,5.80
2018-03-21T07:18:16.082Z,6.68
2018-03-21T07:20:42.289Z,6.50
2018-03-21T07:23:09.291Z,5.60
2018-03-21T07:25:35.908Z,8.25
2018-03-21T07:28:02.168Z,6.25
2018-03-21T07:30:29.060Z,6.25
2018-03-21T07:32:55.285Z,9.05
2018-03-21T07:35:21.498Z,6.85
2018-03-21T07:37:47.721Z,5.28
2018-03-21T07:40:13.950Z,6.32
2018-03-21T07:42:40.176Z,6.50
2018-03-21T07:45:06.468Z,7.18
2018-03-21T07:47:33.504Z,7.87
2018-03-21T07:49:59.723Z,6.95
2018-03-21T07:52:25.953Z,5.75
2018-03-21T07:54:52.162Z,6.28
2018-03-21T07:57:18.393Z,5.93
2018-03-21T07:59:44.666Z,9.75
2018-03-21T08:02:11.302Z,7.20
2018-03-21T08:04:37.948Z,6.75
2018-03-21T08:07:04.200Z,12.65
2018-03-21T08:09:30.484Z,6.57
2018-03-21T08:11:57.113Z,7.53
2018-03-21T08:14:23.357Z,5.65
2018-03-21T08:16:49.941Z,6.68
2018-03-21T08:19:16.437Z,6.35
2018-03-21T08:21:43.689Z,6.65
2018-03-21T08:24:10.319Z,4.97
2018-03-21T08:26:36.946Z,6.95
2018-03-21T08:29:03.978Z,8.57
2018-03-21T08:31:31.113Z,7.70
2018-03-21T08:33:57.362Z,4.28
2018-03-21T08:36:23.559Z,7.18
2018-03-21T08:38:49.765Z,6.55
2018-03-21T08:41:16.003Z,7.70
2018-03-21T08:43:42.343Z,11.35
2018-03-21T08:46:08.565Z,7.22
2018-03-21T08:48:34.829Z,5.95
2018-03-21T08:51:01.075Z,4.97
2018-03-21T08:53:27.706Z,4.90
2018-03-21T08:55:53.944Z,8.23
2018-03-21T08:58:20.516Z,5.78
2018-03-21T09:00:46.813Z,5.57
2018-03-21T09:03:13.448Z,6.40
2018-03-21T09:05:40.047Z,6.20
2018-03-21T09:08:06.296Z,8.65
2018-03-21T09:10:32.512Z,5.70
2018-03-21T09:12:58.752Z,7.35
2018-03-21T09:15:24.996Z,5.50
2018-03-21T09:17:51.598Z,7.00
2018-03-21T09:20:17.840Z,5.45
2018-03-21T09:22:44.088Z,6.90
2018-03-21T09:25:10.704Z,5.68
2018-03-21T09:27:36.944Z,8.10
2018-03-21T09:30:03.599Z,7.28
2018-03-21T09:32:30.197Z,10.07
2018-03-21T09:34:56.712Z,5.53
2018-03-21T09:37:23.040Z,5.15
2018-03-21T09:39:49.242Z,7.22
2018-03-21T09:42:15.498Z,5.07
2018-03-21T09:44:41.734Z,5.55
2018-03-21T09:47:07.998Z,6.85
2018-03-21T09:49:34.640Z,4.72
2018-03-21T09:52:01.242Z,15.65
2018-03-21T09:54:27.501Z,6.68
2018-03-21T09:56:54.077Z,17.92
2018-03-21T09:59:20.291Z,22.48
2018-03-21T10:01:46.565Z,14.75
2018-03-21T10:04:12.796Z,23.75
2018-03-21T10:06:39.017Z,9.05
2018-03-21T10:09:05.307Z,5.07
2018-03-21T10:11:31.553Z,12.85
2018-03-21T10:13:58.773Z,7.15
2018-03-21T10:16:25.372Z,6.60
2018-03-21T10:18:51.576Z,6.97
2018-03-21T10:21:17.798Z,4.18
2018-03-21T10:23:44.069Z,5.72
2018-03-21T10:26:10.254Z,4.37
2018-03-21T10:28:36.507Z,4.57
2018-03-21T10:31:02.721Z,5.35
2018-03-21T10:33:28.965Z,4.00
2018-03-21T10:35:55.545Z,4.80
2018-03-21T10:38:21.827Z,4.87
2018-03-21T10:40:48.054Z,3.87
2018-03-21T10:43:14.607Z,4.53
2018-03-21T10:45:40.840Z,4.53
2018-03-21T10:48:07.072Z,2.80
2018-03-21T10:50:33.347Z,2.97
2018-03-21T10:52:59.555Z,3.47
2018-03-21T10:55:25.779Z,5.00
2018-03-21T10:57:52.042Z,3.53
2018-03-21T11:00:18.291Z,3.10
2018-03-21T11:02:50.584Z,2.97
2018-03-21T11:05:17.220Z,3.67
2018-03-21T11:07:43.489Z,3.60
2018-03-21T11:10:10.074Z,3.83
2018-03-21T11:12:36.336Z,3.80
2018-03-21T11:15:02.589Z,3.90
2018-03-21T11:17:28.831Z,3.97
2018-03-21T11:19:55.043Z,3.90
2018-03-21T11:22:22.138Z,3.90
2018-03-21T11:24:48.761Z,3.83
2018-03-21T11:27:14.983Z,4.10
2018-03-21T11:29:41.209Z,4.20
2018-03-21T11:32:07.487Z,3.70
2018-03-21T11:34:34.118Z,3.47
2018-03-21T11:37:00.741Z,4.20
2018-03-21T11:39:27.350Z,4.13
2018-03-21T11:41:53.582Z,3.30
2018-03-21T11:44:19.779Z,3.90
2018-03-21T11:46:46.022Z,4.43
2018-03-21T11:49:12.276Z,4.73
2018-03-21T11:51:38.498Z,6.07
2018-03-21T11:54:04.731Z,4.20
2018-03-21T11:56:30.943Z,3.20
2018-03-21T11:58:57.152Z,4.30
2018-03-21T12:01:23.406Z,3.57
2018-03-21T12:03:49.675Z,4.40
2018-03-21T12:06:16.272Z,3.58
2018-03-21T12:08:42.960Z,3.10
2018-03-21T12:11:09.542Z,3.42
2018-03-21T12:13:35.814Z,3.12
2018-03-21T12:16:02.858Z,3.10
2018-03-21T12:18:29.433Z,3.03
2018-03-21T12:20:55.646Z,3.45
2018-03-21T12:23:21.919Z,4.95
2018-03-21T12:25:48.203Z,3.33
2018-03-21T12:28:14.444Z,3.20
2018-03-21T12:30:41.467Z,3.67
2018-03-21T12:33:07.685Z,3.47
2018-03-21T12:35:34.276Z,3.17
2018-03-21T12:38:02.407Z,2.90
2018-03-21T12:40:28.636Z,2.90
2018-03-21T12:42:54.909Z,2.80
2018-03-21T12:45:21.164Z,4.10
2018-03-21T12:47:48.278Z,2.70
2018-03-21T12:50:14.526Z,3.30
2018-03-21T12:52:42.439Z,4.30
2018-03-21T12:55:08.666Z,3.27
2018-03-21T12:57:35.696Z,3.57
2018-03-21T13:00:02.337Z,3.00
2018-03-21T13:02:28.950Z,3.63
2018-03-21T13:04:55.172Z,3.60
2018-03-21T13:07:21.443Z,2.90
2018-03-21T13:09:47.716Z,3.40
2018-03-21T13:12:13.917Z,3.00
2018-03-21T13:14:40.168Z,3.57
2018-03-21T13:17:06.375Z,3.50
2018-03-21T13:19:32.613Z,3.40
2018-03-21T13:21:58.859Z,3.10
2018-03-21T13:24:25.083Z,3.53
2018-03-21T13:26:52.090Z,2.80
2018-03-21T13:29:18.336Z,2.70
2018-03-21T13:31:44.575Z,4.40
2018-03-21T13:34:10.857Z,3.70
2018-03-21T13:36:39.048Z,2.70
2018-03-21T13:39:05.342Z,2.97
2018-03-21T13:41:31.570Z,3.20
2018-03-21T13:43:57.838Z,2.77
2018-03-21T13:46:24.100Z,2.90
2018-03-21T13:48:50.347Z,2.63
2018-03-21T13:51:16.602Z,2.83
2018-03-21T13:53:43.240Z,3.17
2018-03-21T13:56:09.461Z,3.12
2018-03-21T13:58:36.080Z,2.67
2018-03-21T14:01:02.333Z,5.57
2018-03-21T14:03:28.908Z,10.65
2018-03-21T14:05:55.209Z,3.10
2018-03-21T14:08:21.466Z,3.25
2018-03-21T14:10:47.752Z,6.00
2018-03-21T14:13:14.415Z,3.40
2018-03-21T14:15:40.687Z,10.75
2018-03-21T14:18:06.935Z,2.37
2018-03-21T14:20:33.206Z,2.50
2018-03-21T14:22:59.453Z,2.80
2018-03-21T14:25:25.682Z,3.50
2018-03-21T14:27:51.965Z,2.80
2018-03-21T14:30:19.356Z,3.80
2018-03-21T14:32:45.572Z,5.78
2018-03-21T14:35:11.840Z,3.22
2018-03-21T14:37:38.072Z,3.87
2018-03-21T14:40:04.343Z,2.87
2018-03-21T14:42:30.605Z,8.35
2018-03-21T14:44:56.907Z,3.47
2018-03-21T14:47:23.157Z,3.50
2018-03-21T14:49:49.373Z,5.05
2018-03-21T14:52:15.632Z,2.40
2018-03-21T14:54:41.888Z,2.47
2018-03-21T14:57:08.142Z,2.30
2018-03-21T14:59:34.714Z,3.25
2018-03-21T15:02:00.958Z,4.65
2018-03-21T15:04:27.229Z,2.58
2018-03-21T15:06:53.832Z,2.60
2018-03-21T15:09:20.086Z,2.10
2018-03-21T15:11:46.286Z,2.40
2018-03-21T15:14:12.548Z,2.00
2018-03-21T15:16:39.616Z,9.45
2018-03-21T15:19:05.876Z,11.12
2018-03-21T15:21:32.121Z,3.30
2018-03-21T15:24:00.150Z,2.53
2018-03-21T15:26:26.404Z,2.78
2018-03-21T15:28:52.667Z,3.17
2018-03-21T15:31:18.914Z,3.17
2018-03-21T15:33:45.520Z,2.95
2018-03-21T15:36:12.427Z,3.00
2018-03-21T15:38:38.641Z,3.15
2018-03-21T15:41:04.902Z,4.03
2018-03-21T15:43:31.131Z,2.85
2018-03-21T15:45:57.353Z,2.70
2018-03-21T15:48:23.578Z,2.75
2018-03-21T15:50:50.161Z,2.78
2018-03-21T15:53:16.767Z,2.67
2018-03-21T15:55:42.974Z,2.70
2018-03-21T15:58:09.212Z,2.97
2018-03-21T16:00:35.543Z,3.67
2018-03-21T16:03:01.771Z,4.12
2018-03-21T16:05:28.036Z,3.78
2018-03-21T16:07:54.285Z,3.37
2018-03-21T16:10:20.523Z,3.03
2018-03-21T16:12:46.800Z,4.62
2018-03-21T16:15:13.004Z,5.65
2018-03-21T16:17:39.241Z,5.15
2018-03-21T16:20:05.802Z,3.37
2018-03-21T16:22:32.022Z,2.95
2018-03-21T16:24:58.233Z,2.78
2018-03-21T16:27:24.490Z,3.45
2018-03-21T16:29:50.756Z,3.33
2018-03-21T16:32:16.970Z,4.65
2018-03-21T16:34:43.225Z,2.95
2018-03-21T16:37:09.473Z,3.58
2018-03-21T16:39:35.753Z,3.15
2018-03-21T16:42:02.373Z,3.70
2018-03-21T16:44:28.659Z,3.15
2018-03-21T16:46:54.955Z,3.40
2018-03-21T16:49:21.200Z,3.03
2018-03-21T16:51:47.427Z,3.08
2018-03-21T16:54:14.028Z,3.00
2018-03-21T16:56:40.234Z,3.20
2018-03-21T16:59:06.495Z,3.50
2018-03-21T17:01:33.115Z,4.22
2018-03-21T17:04:06.305Z,4.22
2018-03-21T17:06:32.568Z,3.33
2018-03-21T17:08:58.823Z,3.25
2018-03-21T17:11:26.059Z,2.83
2018-03-21T17:13:52.344Z,3.20
2018-03-21T17:16:18.608Z,3.78
2018-03-21T17:18:45.244Z,3.20
2018-03-21T17:21:11.894Z,3.37
2018-03-21T17:23:38.920Z,5.95
2018-03-21T17:26:05.530Z,3.35
2018-03-21T17:28:31.760Z,3.40
2018-03-21T17:30:57.982Z,3.00
2018-03-21T17:33:24.238Z,3.75
2018-03-21T17:35:50.842Z,3.65
2018-03-21T17:38:17.040Z,3.92
2018-03-21T17:40:43.282Z,3.03
2018-03-21T17:43:09.594Z,3.47
2018-03-21T17:45:35.824Z,5.70
2018-03-21T17:48:02.098Z,5.15
2018-03-21T17:50:28.696Z,4.40
2018-03-21T17:52:54.989Z,3.70
2018-03-21T17:55:21.303Z,5.07
2018-03-21T17:57:48.890Z,3.22
2018-03-21T18:00:15.683Z,4.12
2018-03-21T18:02:41.950Z,4.30
2018-03-21T18:05:08.206Z,3.03
2018-03-21T18:07:34.489Z,3.33
2018-03-21T18:10:00.741Z,4.87
2018-03-21T18:12:26.994Z,3.42
2018-03-21T18:14:53.247Z,5.03
2018-03-21T18:17:19.489Z,5.03
2018-03-21T18:19:45.765Z,6.82
2018-03-21T18:22:12.034Z,6.47
2018-03-21T18:24:38.307Z,7.35
2018-03-21T18:27:04.556Z,6.00
2018-03-21T18:29:30.790Z,4.60
2018-03-21T18:31:57.025Z,5.53
2018-03-21T18:34:23.278Z,4.43
2018-03-21T18:36:49.518Z,5.28
2018-03-21T18:39:15.772Z,4.43
2018-03-21T18:41:42.042Z,8.57
2018-03-21T18:44:08.277Z,7.22
2018-03-21T18:46:34.509Z,12.05
2018-03-21T18:49:00.789Z,9.60
2018-03-21T18:51:27.419Z,7.20
2018-03-21T18:53:53.719Z,4.87
2018-03-21T18:56:20.083Z,7.00
2018-03-21T18:58:46.729Z,6.40
2018-03-21T19:01:13.336Z,6.37
2018-03-21T19:03:39.610Z,4.22
2018-03-21T19:06:05.834Z,7.50
2018-03-21T19:08:32.080Z,4.60
2018-03-21T19:10:58.407Z,5.28
2018-03-21T19:13:24.660Z,5.00
2018-03-21T19:15:50.909Z,4.62
2018-03-21T19:18:17.436Z,3.80
2018-03-21T19:20:43.688Z,4.40
2018-03-21T19:23:16.960Z,4.97
2018-03-21T19:25:43.255Z,4.37
2018-03-21T19:28:09.559Z,8.48
2018-03-21T19:30:35.793Z,5.53
2018-03-21T19:33:02.076Z,5.62
2018-03-21T19:35:28.437Z,5.50
2018-03-21T19:37:55.102Z,5.78
2018-03-21T19:40:22.130Z,5.12
2018-03-21T19:42:48.424Z,3.75
2018-03-21T19:45:14.664Z,3.42
2018-03-21T19:47:40.931Z,3.60
2018-03-21T19:50:07.258Z,4.80
2018-03-21T19:52:34.330Z,4.12
2018-03-21T19:55:00.624Z,4.32
2018-03-21T19:57:26.889Z,6.28
2018-03-21T19:59:53.123Z,4.82
2018-03-21T20:02:19.375Z,3.35
2018-03-21T20:04:45.666Z,6.20
2018-03-21T20:07:11.932Z,5.50
2018-03-21T20:09:38.465Z,4.00
2018-03-21T20:12:04.727Z,3.30
2018-03-21T20:14:31.324Z,4.97
2018-03-21T20:16:57.610Z,6.53
2018-03-21T20:19:23.848Z,4.57
2018-03-21T20:21:50.084Z,5.55
2018-03-21T20:24:16.404Z,5.47
2018-03-21T20:26:42.632Z,6.20
2018-03-21T20:29:08.914Z,14.07
2018-03-21T20:31:35.167Z,15.60
2018-03-21T20:34:01.693Z,11.77
2018-03-21T20:36:28.304Z,14.10
2018-03-21T20:38:54.929Z,11.35
2018-03-21T20:41:21.281Z,10.60
2018-03-21T20:43:47.607Z,8.75
2018-03-21T20:46:13.854Z,9.15
2018-03-21T20:48:40.474Z,12.90
2018-03-21T20:51:07.120Z,11.35
2018-03-21T20:53:33.363Z,14.50
2018-03-21T20:55:59.990Z,11.00
2018-03-21T20:58:26.563Z,13.38
2018-03-21T21:00:52.806Z,12.05
2018-03-21T21:03:19.051Z,12.05
2018-03-21T21:05:45.367Z,14.48
2018-03-21T21:08:11.675Z,14.87
2018-03-21T21:10:38.659Z,15.25
2018-03-21T21:13:04.898Z,11.40
2018-03-21T21:15:32.161Z,11.23
2018-03-21T21:17:58.363Z,10.75
2018-03-21T21:20:24.649Z,12.52
2018-03-21T21:22:50.899Z,13.62
2018-03-21T21:25:17.210Z,11.02
2018-03-21T21:27:43.456Z,11.90
2018-03-21T21:30:09.774Z,15.35
2018-03-21T21:32:36.107Z,17.12
2018-03-21T21:35:02.331Z,16.10
2018-03-21T21:37:29.343Z,15.85
2018-03-21T21:39:55.552Z,15.90
2018-03-21T21:42:21.864Z,18.00
2018-03-21T21:44:48.405Z,17.87
2018-03-21T21:47:14.612Z,14.55
2018-03-21T21:49:40.885Z,15.30
2018-03-21T21:52:08.086Z,17.35
2018-03-21T21:54:34.318Z,12.93
2018-03-21T21:57:00.505Z,16.05
2018-03-21T21:59:26.782Z,11.38
2018-03-21T22:01:53.023Z,16.37
2018-03-21T22:04:19.236Z,13.73
2018-03-21T22:06:45.591Z,13.73
2018-03-21T22:09:11.846Z,13.05
2018-03-21T22:11:38.061Z,14.40
2018-03-21T22:14:04.315Z,15.00
2018-03-21T22:16:30.563Z,15.52
2018-03-21T22:18:56.784Z,15.88
2018-03-21T22:21:23.027Z,14.82
2018-03-21T22:23:49.247Z,18.27
2018-03-21T22:26:15.472Z,16.00
2018-03-21T22:28:41.702Z,13.57
2018-03-21T22:31:07.920Z,16.00
2018-03-21T22:33:34.134Z,15.02
2018-03-21T22:36:00.731Z,13.57
2018-03-21T22:38:26.931Z,13.60
2018-03-21T22:40:53.130Z,15.43
2018-03-21T22:43:19.732Z,13.95
2018-03-21T22:45:45.941Z,17.65
2018-03-21T22:48:12.164Z,14.25
2018-03-21T22:50:38.690Z,13.98
2018-03-21T22:53:04.875Z,15.02
2018-03-21T22:55:31.079Z,15.07
2018-03-21T22:57:57.306Z,16.85
2018-03-21T23:00:23.506Z,13.98
2018-03-21T23:02:49.700Z,15.93
2018-03-21T23:05:16.411Z,14.93
2018-03-21T23:07:42.651Z,15.55
2018-03-21T23:10:09.272Z,13.50
2018-03-21T23:12:35.518Z,19.98
2018-03-21T23:15:02.119Z,20.98
2018-03-21T23:17:28.377Z,16.80
2018-03-21T23:19:55.006Z,13.98
2018-03-21T23:22:22.150Z,14.13
2018-03-21T23:24:48.395Z,16.62
2018-03-21T23:27:14.640Z,15.80
2018-03-21T23:29:40.918Z,15.00
2018-03-21T23:32:07.124Z,17.50
2018-03-21T23:34:33.387Z,16.05
2018-03-21T23:36:59.595Z,17.80
2018-03-21T23:39:25.793Z,12.00
2018-03-21T23:41:52.027Z,15.30
2018-03-21T23:44:18.246Z,14.20
2018-03-21T23:46:44.466Z,14.93
2018-03-21T23:49:10.960Z,17.40
2018-03-21T23:51:37.174Z,12.75
2018-03-21T23:54:03.402Z,16.02
2018-03-21T23:56:29.638Z,12.45
2018-03-21T23:58:55.847Z,11.02
